Time;durP1;ratioP1;P1;durP2;ratioP2;P2;SDS_P1;SDS_P2;PMS_P1;PMS_P2;Temp;Humidity;BMP_temperature;BMP_pressure;BME280_temperature;BME280_humidity;BME280_pressure;Samples;Min_cycle;Max_cycle;Signal;HPM_P1;HPM_P2
2022/08/10 00:02:18;;;;;;;2.80;2.60;;;19.40;92.40;;;;;;488449;243;29171;-71
2022/08/10 00:04:20;;;;;;;2.57;2.40;;;19.30;92.60;;;;;;488500;243;29150;-68
2022/08/10 00:06:21;;;;;;;2.53;2.40;;;19.30;92.80;;;;;;488395;243;28715;-69
2022/08/10 00:08:24;;;;;;;2.63;2.43;;;19.30;92.60;;;;;;488391;243;28814;-68
2022/08/10 00:10:23;;;;;;;3.07;2.80;;;19.20;93.30;;;;;;488434;243;28726;-68
2022/08/10 00:12:25;;;;;;;2.43;2.23;;;19.20;92.80;;;;;;488526;243;28741;-69
2022/08/10 00:14:26;;;;;;;2.53;2.43;;;19.20;92.90;;;;;;488511;243;28840;-68
2022/08/10 00:16:27;;;;;;;2.53;2.33;;;19.10;93.40;;;;;;488444;243;28725;-69
2022/08/10 00:18:28;;;;;;;2.40;2.30;;;19.10;93.40;;;;;;488512;243;28937;-71
2022/08/10 00:20:30;;;;;;;3.20;2.90;;;19.00;93.30;;;;;;488528;243;28674;-69
2022/08/10 00:22:31;;;;;;;2.60;2.50;;;19.00;93.50;;;;;;488522;243;28719;-69
2022/08/10 00:24:32;;;;;;;2.73;2.53;;;18.90;93.20;;;;;;488496;243;29152;-69
2022/08/10 00:26:33;;;;;;;2.60;2.40;;;18.90;93.60;;;;;;488454;243;29295;-69
2022/08/10 00:28:35;;;;;;;3.13;2.30;;;18.90;93.30;;;;;;488499;243;29901;-68
2022/08/10 00:30:36;;;;;;;2.60;2.40;;;18.80;93.50;;;;;;488532;243;28758;-68
2022/08/10 00:32:37;;;;;;;2.77;2.57;;;18.80;93.60;;;;;;488501;243;28710;-72
2022/08/10 00:34:38;;;;;;;2.20;2.10;;;18.80;94.00;;;;;;488531;243;28678;-68
2022/08/10 00:36:40;;;;;;;2.43;2.33;;;18.70;94.40;;;;;;488414;243;28789;-69
2022/08/10 00:38:41;;;;;;;2.50;2.40;;;18.70;93.70;;;;;;488500;243;28687;-68
2022/08/10 00:40:42;;;;;;;2.87;2.67;;;18.70;93.60;;;;;;488538;243;28687;-68
2022/08/10 00:42:44;;;;;;;2.47;2.37;;;18.70;93.60;;;;;;488534;243;29241;-70
2022/08/10 00:44:45;;;;;;;2.80;2.60;;;18.60;93.80;;;;;;488544;243;29234;-69
2022/08/10 00:46:46;;;;;;;2.40;2.30;;;18.60;93.90;;;;;;488442;243;29268;-69
2022/08/10 00:48:47;;;;;;;2.40;2.30;;;18.60;93.70;;;;;;488519;243;29034;-68
2022/08/10 00:50:49;;;;;;;2.80;2.60;;;18.60;94.10;;;;;;488517;243;28746;-69
2022/08/10 00:52:50;;;;;;;2.97;2.77;;;18.60;93.70;;;;;;488510;243;28719;-70
2022/08/10 00:54:51;;;;;;;2.80;2.60;;;18.50;93.80;;;;;;488510;243;28768;-68
2022/08/10 00:56:52;;;;;;;2.77;2.57;;;18.50;93.90;;;;;;488413;243;28794;-70
2022/08/10 00:58:54;;;;;;;3.00;2.80;;;18.40;93.90;;;;;;488467;243;28679;-68
2022/08/10 01:00:55;;;;;;;3.07;2.87;;;18.40;94.20;;;;;;488506;243;28765;-68
2022/08/10 01:02:56;;;;;;;2.83;2.63;;;18.30;94.20;;;;;;488498;243;28818;-71
2022/08/10 01:04:57;;;;;;;2.70;2.50;;;18.30;94.10;;;;;;488501;243;28784;-68
2022/08/10 01:06:59;;;;;;;3.07;2.87;;;18.30;93.90;;;;;;488424;243;28819;-69
2022/08/10 01:09:00;;;;;;;3.07;2.87;;;18.30;94.00;;;;;;488486;243;28687;-68
2022/08/10 01:11:01;;;;;;;2.93;2.70;;;18.30;93.90;;;;;;488524;243;28668;-68
2022/08/10 01:13:02;;;;;;;3.10;2.90;;;18.30;93.90;;;;;;488497;243;28706;-73
2022/08/10 01:15:04;;;;;;;2.83;2.63;;;18.30;94.00;;;;;;488503;243;28687;-69
2022/08/10 01:17:05;;;;;;;3.17;2.87;;;18.30;94.10;;;;;;488432;243;28745;-69
2022/08/10 01:19:06;;;;;;;3.33;3.13;;;18.30;94.00;;;;;;488480;243;28829;-68
2022/08/10 01:21:07;;;;;;;3.40;3.10;;;18.20;94.00;;;;;;488495;243;29207;-70
2022/08/10 01:23:09;;;;;;;3.20;2.50;;;18.20;94.00;;;;;;488510;243;29195;-69
2022/08/10 01:25:10;;;;;;;3.30;3.00;;;18.20;94.10;;;;;;488497;243;29938;-69
2022/08/10 01:27:11;;;;;;;3.30;3.00;;;18.20;94.10;;;;;;488424;243;29344;-69
2022/08/10 01:29:12;;;;;;;3.80;3.50;;;18.20;94.10;;;;;;488504;243;28712;-68
2022/08/10 01:31:14;;;;;;;3.07;2.87;;;18.20;94.10;;;;;;488499;243;28688;-69
2022/08/10 01:33:15;;;;;;;3.03;2.83;;;18.20;94.20;;;;;;488509;243;28793;-72
2022/08/10 01:35:16;;;;;;;3.67;3.37;;;18.20;94.10;;;;;;488426;243;28707;-69
2022/08/10 01:37:17;;;;;;;3.00;2.80;;;18.10;94.30;;;;;;488411;243;28813;-70
2022/08/10 01:39:19;;;;;;;3.00;2.80;;;18.20;94.40;;;;;;488492;243;28674;-68
2022/08/10 01:41:20;;;;;;;3.03;2.83;;;18.10;94.50;;;;;;488511;243;28687;-68
2022/08/10 01:43:21;;;;;;;2.80;2.60;;;18.20;94.40;;;;;;488516;243;28722;-71
2022/08/10 01:45:22;;;;;;;2.80;2.70;;;18.10;94.30;;;;;;488504;243;28683;-68
2022/08/10 01:49:43;;;;;;;2.63;2.43;;;18.10;94.40;;;;;;488495;243;28809;-71
2022/08/10 01:51:44;;;;;;;3.00;2.80;;;18.10;94.30;;;;;;488527;243;28662;-68
2022/08/10 01:53:50;;;;;;;3.20;2.90;;;18.10;94.40;;;;;;488495;243;28790;-70
2022/08/10 01:55:48;;;;;;;4.30;2.77;;;18.00;94.40;;;;;;488118;243;28685;-68
2022/08/10 01:57:48;;;;;;;2.80;2.60;;;18.00;94.40;;;;;;488368;243;28785;-68
2022/08/10 01:59:49;;;;;;;2.97;2.77;;;18.00;94.40;;;;;;488467;243;28726;-72
2022/08/10 02:01:51;;;;;;;3.00;2.80;;;18.00;94.70;;;;;;488506;243;28785;-69
2022/08/10 02:03:52;;;;;;;3.30;2.60;;;18.00;95.10;;;;;;488551;243;29157;-69
2022/08/10 02:05:53;;;;;;;2.83;2.63;;;17.90;95.60;;;;;;488511;243;29234;-69
2022/08/10 02:07:54;;;;;;;2.77;2.57;;;17.80;95.80;;;;;;488478;243;29206;-69
2022/08/10 02:09:57;;;;;;;2.50;2.30;;;17.70;96.20;;;;;;488562;243;28801;-72
2022/08/10 02:11:58;;;;;;;2.60;2.40;;;17.70;96.50;;;;;;488520;243;28719;-68
2022/08/10 02:14:00;;;;;;;2.50;2.30;;;17.50;96.70;;;;;;488539;243;29251;-72
2022/08/10 02:16:01;;;;;;;2.70;2.50;;;17.50;96.80;;;;;;488477;243;29130;-74
2022/08/10 02:18:02;;;;;;;2.43;2.23;;;17.40;97.10;;;;;;488504;243;29202;-70
2022/08/10 02:20:03;;;;;;;2.50;2.30;;;17.40;97.20;;;;;;488526;243;29146;-68
2022/08/10 02:22:05;;;;;;;2.30;2.20;;;17.30;97.70;;;;;;488505;243;29266;-68
2022/08/10 02:24:07;;;;;;;2.30;2.20;;;17.20;98.10;;;;;;488533;243;28701;-68
2022/08/10 02:26:07;;;;;;;2.40;2.30;;;17.10;98.10;;;;;;488439;243;28742;-70
2022/08/10 02:28:08;;;;;;;2.30;2.10;;;17.10;98.20;;;;;;488535;243;28710;-71
2022/08/10 02:30:10;;;;;;;2.63;2.43;;;17.10;98.40;;;;;;488507;243;28779;-68
2022/08/10 02:32:11;;;;;;;2.37;2.20;;;17.00;98.20;;;;;;488513;243;28789;-68
2022/08/10 02:34:12;;;;;;;2.10;2.00;;;17.00;98.30;;;;;;488517;243;28696;-68
2022/08/10 02:36:13;;;;;;;2.40;2.20;;;17.00;98.30;;;;;;488433;243;28673;-68
2022/08/10 02:38:15;;;;;;;2.70;2.50;;;17.00;97.80;;;;;;488544;243;28741;-70
2022/08/10 02:40:16;;;;;;;3.07;2.50;;;17.10;97.30;;;;;;488514;243;29194;-68
2022/08/10 02:42:17;;;;;;;2.53;2.43;;;17.10;97.30;;;;;;488479;243;29222;-69
2022/08/10 02:44:19;;;;;;;2.70;2.50;;;17.10;97.00;;;;;;488513;243;29908;-68
2022/08/10 02:46:20;;;;;;;3.07;2.77;;;17.10;97.00;;;;;;488483;243;29182;-68
2022/08/10 02:48:21;;;;;;;4.10;3.00;;;17.10;96.90;;;;;;488514;243;28804;-70
2022/08/10 02:50:22;;;;;;;3.23;2.93;;;17.20;96.70;;;;;;488521;243;28675;-68
2022/08/10 02:52:24;;;;;;;4.27;2.67;;;17.20;96.80;;;;;;488514;243;28710;-69
2022/08/10 02:54:26;;;;;;;2.70;2.50;;;17.20;96.70;;;;;;488542;243;28712;-71
2022/08/10 02:56:27;;;;;;;2.80;2.60;;;17.20;96.70;;;;;;488464;243;28804;-71
2022/08/10 02:58:28;;;;;;;2.57;2.37;;;17.20;96.70;;;;;;488493;243;28774;-68
2022/08/10 03:00:30;;;;;;;3.00;2.70;;;17.20;96.70;;;;;;488435;243;29171;-70
2022/08/10 03:02:31;;;;;;;2.90;2.70;;;17.20;96.70;;;;;;488483;243;29872;-68
2022/08/10 03:04:32;;;;;;;2.60;2.43;;;17.20;96.70;;;;;;488506;243;29144;-69
2022/08/10 03:06:34;;;;;;;2.80;2.70;;;17.20;96.70;;;;;;488455;243;29203;-71
2022/08/10 03:08:35;;;;;;;3.00;2.80;;;17.20;96.70;;;;;;488505;243;28671;-69
2022/08/10 03:10:36;;;;;;;2.73;2.57;;;17.20;96.80;;;;;;488495;243;28722;-69
2022/08/10 03:12:37;;;;;;;3.17;2.97;;;17.10;96.90;;;;;;488491;243;28684;-68
2022/08/10 03:14:38;;;;;;;2.87;2.67;;;17.00;97.60;;;;;;488496;243;28667;-69
2022/08/10 03:16:40;;;;;;;2.70;2.50;;;17.00;97.90;;;;;;488447;243;28801;-73
2022/08/10 03:18:41;;;;;;;2.93;2.73;;;16.80;98.50;;;;;;488513;243;28753;-68
2022/08/10 03:20:42;;;;;;;2.40;2.30;;;16.50;98.80;;;;;;488437;243;28714;-68
2022/08/10 03:22:43;;;;;;;2.90;2.70;;;16.10;99.60;;;;;;488490;243;28689;-68
2022/08/10 03:24:45;;;;;;;2.87;2.67;;;16.00;99.90;;;;;;488512;243;29164;-68
2022/08/10 03:26:46;;;;;;;2.80;2.60;;;15.90;99.90;;;;;;488466;243;29224;-71
2022/08/10 03:28:47;;;;;;;2.60;2.40;;;16.00;99.90;;;;;;488495;243;29426;-69
2022/08/10 03:30:48;;;;;;;2.77;2.57;;;16.10;99.50;;;;;;488482;243;29216;-68
2022/08/10 03:32:50;;;;;;;2.97;2.20;;;16.30;99.40;;;;;;488477;243;28682;-68
2022/08/10 03:34:51;;;;;;;2.33;2.23;;;16.30;99.60;;;;;;488514;243;28780;-68
2022/08/10 03:36:52;;;;;;;2.83;2.63;;;16.20;99.40;;;;;;488412;243;28706;-72
2022/08/10 03:38:53;;;;;;;2.70;2.50;;;16.30;98.90;;;;;;488532;243;28824;-68
2022/08/10 03:40:55;;;;;;;3.00;2.80;;;16.40;98.60;;;;;;488530;243;28706;-68
2022/08/10 03:42:56;;;;;;;3.63;3.03;;;16.60;98.20;;;;;;488499;243;28789;-68
2022/08/10 03:44:57;;;;;;;6.43;3.00;;;16.70;98.10;;;;;;488483;243;28687;-68
2022/08/10 03:46:59;;;;;;;2.80;2.60;;;16.70;97.90;;;;;;488486;243;28801;-72
2022/08/10 03:49:01;;;;;;;3.60;2.67;;;16.70;97.90;;;;;;488510;243;28718;-71
2022/08/10 03:51:02;;;;;;;3.00;2.80;;;16.80;97.80;;;;;;488509;243;28770;-68
2022/08/10 03:53:03;;;;;;;3.03;2.83;;;16.80;97.80;;;;;;488511;243;29178;-70
2022/08/10 03:55:04;;;;;;;3.30;2.60;;;16.80;97.70;;;;;;488513;243;29255;-68
2022/08/10 03:57:06;;;;;;;5.90;2.93;;;16.80;97.70;;;;;;488486;243;29137;-69
2022/08/10 03:59:07;;;;;;;3.13;2.87;;;16.80;97.60;;;;;;488448;243;28810;-70
2022/08/10 04:01:08;;;;;;;2.90;2.70;;;16.80;97.70;;;;;;488503;243;28764;-69
2022/08/10 04:03:09;;;;;;;3.00;2.70;;;16.80;97.80;;;;;;488492;243;28751;-68
2022/08/10 04:05:11;;;;;;;3.30;3.00;;;16.80;97.80;;;;;;488512;243;28726;-68
2022/08/10 04:07:12;;;;;;;3.00;2.80;;;16.80;97.90;;;;;;488501;243;28679;-69
2022/08/10 04:09:13;;;;;;;5.80;2.93;;;16.80;97.80;;;;;;488513;243;28751;-72
2022/08/10 04:11:14;;;;;;;3.87;3.23;;;16.80;97.80;;;;;;488503;243;28806;-68
2022/08/10 04:13:16;;;;;;;2.90;2.70;;;16.80;97.90;;;;;;488486;243;28716;-69
2022/08/10 04:15:17;;;;;;;3.00;2.80;;;16.80;98.00;;;;;;488496;243;28791;-68
2022/08/10 04:17:18;;;;;;;2.67;2.47;;;16.80;97.90;;;;;;488457;243;29126;-68
2022/08/10 04:19:19;;;;;;;2.83;2.63;;;16.80;98.20;;;;;;488504;243;28718;-70
2022/08/10 04:21:21;;;;;;;2.80;2.60;;;16.80;98.20;;;;;;488510;243;28778;-68
2022/08/10 04:23:22;;;;;;;3.40;2.83;;;16.70;98.50;;;;;;488448;243;29274;-70
2022/08/10 04:25:23;;;;;;;2.33;2.23;;;16.70;98.50;;;;;;488480;243;29862;-68
2022/08/10 04:27:24;;;;;;;3.30;3.00;;;16.70;98.50;;;;;;488447;243;29137;-68
2022/08/10 04:29:26;;;;;;;4.50;3.00;;;16.70;98.30;;;;;;488519;243;29279;-71
2022/08/10 04:31:27;;;;;;;3.00;2.80;;;16.70;98.30;;;;;;488513;243;28808;-69
2022/08/10 04:33:28;;;;;;;3.43;3.17;;;16.70;98.40;;;;;;488513;243;28735;-69
2022/08/10 04:35:30;;;;;;;2.60;2.50;;;16.70;98.50;;;;;;488348;243;28703;-68
2022/08/10 04:37:31;;;;;;;3.30;3.00;;;16.70;98.20;;;;;;488454;243;28674;-69
2022/08/10 04:39:32;;;;;;;2.63;2.53;;;16.80;98.40;;;;;;488516;243;28724;-70
2022/08/10 04:41:34;;;;;;;3.57;3.00;;;16.80;98.40;;;;;;488486;243;28861;-68
2022/08/10 04:43:35;;;;;;;3.47;3.27;;;16.80;97.90;;;;;;488451;243;28722;-69
2022/08/10 04:45:36;;;;;;;3.70;3.50;;;16.80;98.10;;;;;;488484;243;28680;-68
2022/08/10 04:47:37;;;;;;;2.87;2.67;;;16.90;97.90;;;;;;488436;243;29199;-68
2022/08/10 04:49:38;;;;;;;3.80;3.23;;;16.90;98.10;;;;;;488478;243;29279;-70
2022/08/10 04:51:40;;;;;;;3.90;3.10;;;17.00;98.10;;;;;;488471;243;29130;-68
2022/08/10 04:53:41;;;;;;;2.90;2.73;;;17.00;98.30;;;;;;488440;243;29293;-69
2022/08/10 04:55:42;;;;;;;3.13;2.87;;;17.00;98.60;;;;;;488431;243;28660;-68
2022/08/10 04:57:43;;;;;;;2.70;2.50;;;16.90;98.90;;;;;;488447;243;28671;-69
2022/08/10 04:59:45;;;;;;;2.90;2.70;;;16.90;99.10;;;;;;488517;243;28708;-72
2022/08/10 05:01:46;;;;;;;2.90;2.70;;;16.90;98.90;;;;;;488492;243;28695;-69
2022/08/10 05:03:47;;;;;;;3.03;2.83;;;17.00;99.10;;;;;;488476;243;28718;-69
2022/08/10 05:05:48;;;;;;;2.90;2.70;;;17.00;98.80;;;;;;488463;243;28774;-69
2022/08/10 05:07:50;;;;;;;7.00;2.60;;;16.90;99.10;;;;;;488445;243;28798;-71
2022/08/10 05:09:51;;;;;;;2.80;2.60;;;16.90;98.60;;;;;;488498;243;28751;-71
2022/08/10 05:11:52;;;;;;;3.20;2.73;;;17.00;98.30;;;;;;488359;243;28683;-68
2022/08/10 05:13:53;;;;;;;3.40;3.20;;;17.10;98.20;;;;;;488479;243;29202;-70
2022/08/10 05:15:55;;;;;;;2.77;2.60;;;17.20;98.40;;;;;;488465;243;29116;-68
2022/08/10 05:17:56;;;;;;;2.80;2.60;;;17.20;98.20;;;;;;488463;243;29269;-69
2022/08/10 05:19:57;;;;;;;3.30;3.10;;;17.30;98.10;;;;;;488514;243;28718;-74
2022/08/10 05:21:58;;;;;;;3.43;2.90;;;17.30;98.40;;;;;;488497;243;28659;-69
2022/08/10 05:24:03;;;;;;;8.93;3.27;;;17.20;98.40;;;;;;488468;243;28801;-69
2022/08/10 05:26:01;;;;;;;3.70;3.40;;;17.40;97.80;;;;;;488192;243;28682;-79
2022/08/10 05:28:02;;;;;;;3.40;3.13;;;17.50;97.60;;;;;;488470;243;28694;-69
2022/08/10 05:30:03;;;;;;;3.50;3.20;;;17.60;97.60;;;;;;488513;243;28759;-72
2022/08/10 05:32:05;;;;;;;4.50;3.13;;;17.60;97.50;;;;;;488489;243;28725;-69
2022/08/10 05:34:06;;;;;;;3.13;2.80;;;17.60;97.50;;;;;;488483;243;28724;-70
2022/08/10 05:36:07;;;;;;;3.87;3.57;;;17.60;97.70;;;;;;488347;243;28743;-71
2022/08/10 05:38:09;;;;;;;4.60;2.87;;;17.80;97.50;;;;;;488528;243;29155;-70
2022/08/10 05:40:10;;;;;;;3.40;3.10;;;17.80;97.50;;;;;;488480;243;29336;-70
2022/08/10 05:42:11;;;;;;;3.50;3.20;;;17.90;97.30;;;;;;488532;243;29230;-69
2022/08/10 05:44:12;;;;;;;3.77;3.43;;;18.00;97.10;;;;;;488498;243;29308;-69
2022/08/10 05:46:13;;;;;;;2.93;2.73;;;18.00;97.20;;;;;;488440;243;28676;-68
2022/08/10 05:48:15;;;;;;;4.63;3.50;;;18.00;97.20;;;;;;488550;243;28686;-69
2022/08/10 05:50:16;;;;;;;3.90;3.33;;;18.10;97.30;;;;;;488549;243;28746;-71
2022/08/10 05:52:17;;;;;;;3.60;3.30;;;18.10;97.10;;;;;;488534;243;28807;-70
2022/08/10 05:54:18;;;;;;;3.83;3.23;;;18.10;97.20;;;;;;488527;243;28770;-69
2022/08/10 05:56:20;;;;;;;4.40;2.97;;;18.20;97.20;;;;;;488444;243;28711;-68
2022/08/10 05:58:21;;;;;;;3.57;3.37;;;18.20;97.20;;;;;;488523;243;28783;-70
2022/08/10 06:00:23;;;;;;;3.50;3.20;;;18.30;97.10;;;;;;488544;243;28814;-73
2022/08/10 06:02:23;;;;;;;2.90;2.70;;;18.30;96.80;;;;;;488515;243;28673;-69
2022/08/10 06:04:25;;;;;;;3.03;2.83;;;18.30;97.00;;;;;;488521;243;29166;-70
2022/08/10 06:06:26;;;;;;;3.60;3.20;;;18.30;96.90;;;;;;488449;243;29288;-68
2022/08/10 06:08:27;;;;;;;3.57;3.27;;;18.40;96.90;;;;;;488552;243;29293;-69
2022/08/10 06:10:28;;;;;;;2.87;2.57;;;18.50;96.90;;;;;;488543;243;28715;-72
2022/08/10 06:12:30;;;;;;;3.33;2.90;;;18.50;97.00;;;;;;488471;243;28680;-69
2022/08/10 06:16:50;;;;;;;4.00;3.60;;;18.60;96.70;;;;;;488308;243;28719;-73
2022/08/10 06:18:52;;;;;;;3.67;3.27;;;18.70;96.60;;;;;;488450;243;28679;-69
2022/08/10 06:20:53;;;;;;;7.37;3.23;;;18.70;96.50;;;;;;488547;243;28699;-69
2022/08/10 06:22:54;;;;;;;2.77;2.57;;;18.80;96.40;;;;;;488512;243;28764;-68
2022/08/10 06:24:55;;;;;;;3.93;3.43;;;18.80;96.30;;;;;;488525;243;28757;-69
2022/08/10 06:26:57;;;;;;;3.50;3.20;;;18.90;96.00;;;;;;488473;243;29192;-71
2022/08/10 06:28:58;;;;;;;3.30;3.00;;;19.00;96.00;;;;;;488555;243;29143;-69
2022/08/10 06:30:59;;;;;;;2.97;2.77;;;19.00;96.00;;;;;;488546;243;29194;-69
2022/08/10 06:33:00;;;;;;;3.30;3.00;;;19.10;96.10;;;;;;488494;243;29141;-69
2022/08/10 06:35:02;;;;;;;3.40;3.00;;;19.10;95.90;;;;;;488535;243;28694;-69
2022/08/10 06:37:03;;;;;;;3.93;3.47;;;19.10;95.90;;;;;;488371;243;28782;-73
2022/08/10 06:39:04;;;;;;;3.27;2.97;;;19.10;95.80;;;;;;488494;243;28738;-69
2022/08/10 06:41:05;;;;;;;3.90;3.10;;;19.30;95.90;;;;;;488526;243;28703;-70
2022/08/10 06:43:07;;;;;;;3.00;2.80;;;19.30;95.50;;;;;;488486;243;28775;-69
2022/08/10 06:45:08;;;;;;;3.60;3.17;;;19.40;95.70;;;;;;488512;243;28770;-69
2022/08/10 06:47:09;;;;;;;5.30;3.97;;;19.50;95.90;;;;;;488491;243;28715;-72
2022/08/10 06:49:10;;;;;;;4.20;2.90;;;19.50;95.70;;;;;;488539;243;28837;-69
2022/08/10 06:51:12;;;;;;;3.33;3.00;;;19.70;95.60;;;;;;488508;243;28825;-70
2022/08/10 06:53:13;;;;;;;4.00;2.60;;;19.70;95.50;;;;;;488497;243;29230;-69
2022/08/10 06:55:14;;;;;;;4.20;3.10;;;19.80;95.30;;;;;;488506;243;29198;-69
2022/08/10 06:57:15;;;;;;;3.20;2.90;;;19.80;95.20;;;;;;488467;243;29392;-72
2022/08/10 06:59:17;;;;;;;3.17;2.80;;;19.90;95.30;;;;;;488535;243;28714;-70
2022/08/10 07:01:19;;;;;;;8.20;3.27;;;20.00;95.10;;;;;;488514;243;28722;-69
2022/08/10 07:03:19;;;;;;;8.03;3.03;;;20.00;95.00;;;;;;488426;243;28752;-69
2022/08/10 07:05:20;;;;;;;3.10;2.87;;;20.10;95.20;;;;;;488527;243;28786;-69
2022/08/10 07:07:22;;;;;;;2.87;2.67;;;20.20;95.20;;;;;;488485;243;28726;-70
2022/08/10 07:09:23;;;;;;;2.80;2.60;;;20.30;95.20;;;;;;488518;243;28758;-70
2022/08/10 07:11:24;;;;;;;3.77;2.77;;;20.30;94.90;;;;;;488537;243;28714;-69
2022/08/10 07:13:25;;;;;;;3.00;2.80;;;20.50;94.90;;;;;;488528;243;28775;-70
2022/08/10 07:15:27;;;;;;;2.70;2.60;;;20.60;95.20;;;;;;488523;243;28742;-68
2022/08/10 07:17:28;;;;;;;3.10;2.90;;;20.70;94.90;;;;;;488480;243;29277;-73
2022/08/10 07:19:29;;;;;;;2.80;2.30;;;20.80;94.90;;;;;;488510;243;29147;-69
2022/08/10 07:21:30;;;;;;;2.33;2.23;;;20.90;94.70;;;;;;488511;243;29329;-70
2022/08/10 07:23:32;;;;;;;2.87;2.67;;;20.80;94.70;;;;;;488494;243;28713;-69
2022/08/10 07:25:33;;;;;;;3.80;2.63;;;20.80;95.10;;;;;;488498;243;28722;-68
2022/08/10 07:27:34;;;;;;;2.77;2.57;;;21.10;94.90;;;;;;488484;243;28728;-71
2022/08/10 07:29:35;;;;;;;2.80;2.60;;;21.10;94.70;;;;;;488529;243;28674;-68
2022/08/10 07:31:37;;;;;;;3.00;2.70;;;21.00;94.50;;;;;;488497;243;28722;-70
2022/08/10 07:33:38;;;;;;;2.53;2.33;;;21.00;94.60;;;;;;488507;243;28683;-68
2022/08/10 07:35:39;;;;;;;3.63;2.57;;;21.10;94.70;;;;;;488406;243;28698;-69
2022/08/10 07:37:41;;;;;;;2.60;2.40;;;21.20;94.30;;;;;;488450;243;28730;-71
2022/08/10 07:39:42;;;;;;;2.57;2.47;;;21.30;94.00;;;;;;488525;243;28767;-68
2022/08/10 07:41:43;;;;;;;2.70;2.50;;;21.40;94.30;;;;;;488525;243;29205;-70
2022/08/10 07:43:44;;;;;;;2.87;2.67;;;21.40;94.00;;;;;;488498;243;29221;-69
2022/08/10 07:45:46;;;;;;;2.73;2.53;;;21.50;94.70;;;;;;488514;243;29150;-69
2022/08/10 07:47:47;;;;;;;2.80;2.57;;;21.70;93.40;;;;;;488489;243;29205;-72
2022/08/10 07:49:48;;;;;;;3.20;2.27;;;21.70;93.50;;;;;;488543;243;28679;-69
2022/08/10 07:51:49;;;;;;;6.70;2.70;;;21.70;93.50;;;;;;488542;243;28720;-70
2022/08/10 07:53:51;;;;;;;2.60;2.40;;;21.70;93.20;;;;;;488509;243;28668;-68
2022/08/10 07:55:52;;;;;;;2.50;2.30;;;21.80;93.20;;;;;;488525;243;28698;-69
2022/08/10 07:57:53;;;;;;;5.60;2.40;;;21.90;93.10;;;;;;488494;243;28718;-73
2022/08/10 07:59:54;;;;;;;3.30;2.10;;;21.90;92.70;;;;;;488525;243;28688;-69
2022/08/10 08:01:56;;;;;;;3.33;2.23;;;22.00;92.50;;;;;;488517;243;28809;-70
2022/08/10 08:03:57;;;;;;;2.47;2.27;;;21.90;92.80;;;;;;488469;243;28715;-68
2022/08/10 08:05:58;;;;;;;2.30;2.10;;;22.10;92.40;;;;;;488498;243;29080;-69
2022/08/10 08:07:59;;;;;;;3.27;2.20;;;22.20;91.90;;;;;;488352;243;29300;-72
2022/08/10 08:10:01;;;;;;;2.30;2.10;;;22.30;91.70;;;;;;488526;243;29143;-69
2022/08/10 08:12:02;;;;;;;3.23;2.43;;;22.20;91.40;;;;;;488519;243;29334;-69
2022/08/10 08:14:03;;;;;;;2.83;2.30;;;22.20;91.70;;;;;;488526;243;28698;-68
2022/08/10 08:16:04;;;;;;;2.73;2.53;;;22.20;91.70;;;;;;488495;243;28789;-70
2022/08/10 08:18:06;;;;;;;2.43;2.23;;;22.30;91.80;;;;;;488505;243;28752;-71
2022/08/10 08:20:07;;;;;;;2.70;2.50;;;22.60;91.50;;;;;;488504;243;28711;-70
2022/08/10 08:22:08;;;;;;;3.03;2.23;;;22.60;91.10;;;;;;488487;243;28706;-69
2022/08/10 08:24:09;;;;;;;3.00;2.40;;;22.50;91.70;;;;;;488512;243;28706;-68
2022/08/10 08:26:11;;;;;;;3.50;3.20;;;22.60;91.10;;;;;;488452;243;28682;-69
2022/08/10 08:28:12;;;;;;;2.47;2.27;;;22.60;91.60;;;;;;488512;243;28719;-70
2022/08/10 08:30:13;;;;;;;2.60;2.40;;;22.70;91.10;;;;;;488494;243;28775;-69
2022/08/10 08:32:14;;;;;;;3.30;2.13;;;22.70;90.70;;;;;;488508;243;29170;-69
2022/08/10 08:34:16;;;;;;;2.60;2.40;;;22.80;90.90;;;;;;488521;243;30008;-69
2022/08/10 08:36:17;;;;;;;3.00;2.70;;;22.80;90.80;;;;;;488309;243;29213;-69
2022/08/10 08:38:18;;;;;;;2.00;1.90;;;22.80;91.20;;;;;;488525;243;28809;-71
2022/08/10 08:40:19;;;;;;;4.63;2.43;;;22.60;91.10;;;;;;488505;243;28659;-69
2022/08/10 08:42:21;;;;;;;2.50;2.30;;;22.90;90.50;;;;;;488499;243;28707;-70
2022/08/10 08:44:22;;;;;;;2.70;2.50;;;22.90;90.90;;;;;;488477;243;28750;-68
2022/08/10 08:46:27;;;;;;;3.47;2.37;;;22.90;90.90;;;;;;488457;243;28690;-69
2022/08/10 08:48:25;;;;;;;2.37;2.27;;;23.00;90.70;;;;;;488180;243;28729;-72
2022/08/10 08:50:26;;;;;;;3.93;2.20;;;23.30;90.40;;;;;;488497;243;28682;-69
2022/08/10 08:52:27;;;;;;;2.30;2.20;;;23.40;90.60;;;;;;488494;243;28719;-68
2022/08/10 08:54:28;;;;;;;2.50;2.30;;;23.40;89.90;;;;;;488488;243;28694;-69
2022/08/10 08:56:29;;;;;;;2.20;2.10;;;23.30;90.40;;;;;;488457;243;29262;-69
2022/08/10 08:58:31;;;;;;;3.03;2.77;;;23.30;90.10;;;;;;488509;243;29300;-71
2022/08/10 09:00:32;;;;;;;3.00;2.80;;;23.40;89.60;;;;;;488518;243;29280;-68
2022/08/10 09:02:33;;;;;;;2.30;2.20;;;23.40;89.10;;;;;;488452;243;28790;-69
2022/08/10 09:04:34;;;;;;;3.47;2.30;;;23.50;88.60;;;;;;488444;243;28701;-69
2022/08/10 09:06:36;;;;;;;2.47;2.30;;;23.60;88.60;;;;;;488439;243;28668;-68
2022/08/10 09:08:37;;;;;;;3.07;2.73;;;23.60;87.70;;;;;;488517;243;28798;-73
2022/08/10 09:10:38;;;;;;;3.00;2.70;;;23.60;88.90;;;;;;488524;243;28753;-69
2022/08/10 09:12:39;;;;;;;2.40;2.20;;;23.70;87.60;;;;;;488527;243;28792;-69
2022/08/10 09:14:41;;;;;;;2.90;2.70;;;23.70;86.50;;;;;;488543;243;28717;-71
2022/08/10 09:16:42;;;;;;;2.60;2.40;;;23.80;87.20;;;;;;488512;243;28782;-69
2022/08/10 09:18:43;;;;;;;2.83;2.63;;;23.90;87.60;;;;;;488560;243;28702;-70
2022/08/10 09:20:44;;;;;;;4.20;2.50;;;23.90;86.50;;;;;;488512;243;29135;-69
2022/08/10 09:22:46;;;;;;;2.57;2.37;;;23.90;87.40;;;;;;488529;243;29239;-70
2022/08/10 09:24:47;;;;;;;2.30;2.00;;;23.80;86.30;;;;;;488448;243;29942;-69
2022/08/10 09:26:48;;;;;;;2.20;2.10;;;23.80;85.90;;;;;;488488;243;29141;-69
2022/08/10 09:28:49;;;;;;;2.40;2.20;;;24.10;85.80;;;;;;485279;243;46778;-71
2022/08/10 09:30:51;;;;;;;2.90;2.63;;;24.00;85.00;;;;;;488547;243;27347;-69
2022/08/10 09:32:52;;;;;;;4.83;2.67;;;24.00;85.00;;;;;;488537;243;28734;-70
2022/08/10 09:34:53;;;;;;;2.70;2.50;;;24.10;82.60;;;;;;488528;243;28752;-68
2022/08/10 09:36:54;;;;;;;4.43;2.53;;;24.10;82.90;;;;;;488277;243;28692;-69
2022/08/10 09:38:56;;;;;;;3.10;2.73;;;24.20;83.90;;;;;;488530;243;28722;-71
2022/08/10 09:40:57;;;;;;;4.00;2.40;;;24.40;82.90;;;;;;488521;243;28729;-69
2022/08/10 09:42:58;;;;;;;3.73;3.00;;;24.30;82.20;;;;;;488515;243;28746;-70
2022/08/10 09:44:59;;;;;;;2.20;2.10;;;24.30;81.90;;;;;;488511;243;30541;-68
2022/08/10 09:47:01;;;;;;;2.83;2.50;;;24.40;81.40;;;;;;488498;243;29192;-69
2022/08/10 09:49:03;;;;;;;3.10;2.43;;;24.30;81.80;;;;;;488530;243;29194;-70
2022/08/10 09:51:03;;;;;;;3.50;2.23;;;24.50;82.10;;;;;;488480;243;29202;-69
2022/08/10 09:53:05;;;;;;;3.13;2.53;;;24.50;82.00;;;;;;488522;243;28710;-70
2022/08/10 09:55:06;;;;;;;3.30;2.27;;;24.60;82.20;;;;;;488534;243;28718;-69
2022/08/10 09:57:07;;;;;;;3.23;2.93;;;24.60;82.40;;;;;;488492;243;28720;-68
2022/08/10 09:59:08;;;;;;;5.60;3.17;;;24.60;82.00;;;;;;488536;243;28786;-70
2022/08/10 10:01:10;;;;;;;3.97;2.37;;;24.70;82.20;;;;;;488516;243;28778;-69
2022/08/10 10:03:11;;;;;;;2.77;2.20;;;24.70;81.20;;;;;;488521;243;28722;-69
2022/08/10 10:05:12;;;;;;;3.10;2.20;;;24.70;81.70;;;;;;488511;243;28829;-72
2022/08/10 10:07:13;;;;;;;2.57;2.47;;;24.80;80.40;;;;;;488471;243;28758;-69
2022/08/10 10:09:14;;;;;;;2.73;2.20;;;24.70;79.80;;;;;;488454;243;29253;-70
2022/08/10 10:11:16;;;;;;;3.03;2.30;;;24.70;80.20;;;;;;488535;243;29122;-69
2022/08/10 10:13:17;;;;;;;2.20;2.10;;;24.70;80.80;;;;;;488529;243;29295;-69
2022/08/10 10:15:22;;;;;;;4.03;2.37;;;25.00;80.70;;;;;;488455;243;29299;-72
2022/08/10 10:17:23;;;;;;;2.80;2.50;;;25.00;79.50;;;;;;488332;243;28826;-69
2022/08/10 10:19:24;;;;;;;2.30;2.10;;;25.10;79.70;;;;;;488514;243;29248;-69
2022/08/10 10:21:25;;;;;;;2.30;2.10;;;25.10;78.80;;;;;;488520;243;29196;-69
2022/08/10 10:23:26;;;;;;;3.63;2.23;;;25.10;79.50;;;;;;488544;243;29367;-72
2022/08/10 10:25:28;;;;;;;2.20;2.00;;;25.10;78.40;;;;;;488517;243;28815;-69
2022/08/10 10:27:29;;;;;;;2.77;1.93;;;25.30;79.70;;;;;;488468;243;28714;-70
2022/08/10 10:29:30;;;;;;;2.93;1.90;;;25.50;78.60;;;;;;488523;243;28793;-69
2022/08/10 10:31:31;;;;;;;2.77;2.37;;;25.40;79.60;;;;;;488517;243;28731;-69
2022/08/10 10:33:33;;;;;;;2.30;2.10;;;25.30;79.90;;;;;;488529;243;28686;-69
2022/08/10 10:35:34;;;;;;;2.27;2.00;;;25.30;80.20;;;;;;488363;243;28681;-69
2022/08/10 10:37:35;;;;;;;2.33;2.10;;;25.50;79.70;;;;;;488492;243;28748;-70